createdAt,value
2018-07-10T00:02:33.613Z,7.07
2018-07-10T00:06:15.192Z,1.87
2018-07-10T00:09:59.502Z,1.67
2018-07-10T00:12:27.819Z,2.50
2018-07-10T00:14:56.203Z,2.67
2018-07-10T00:17:24.466Z,2.67
2018-07-10T00:19:52.766Z,2.83
2018-07-10T00:22:21.102Z,0.77
2018-07-10T00:24:49.410Z,3.83
2018-07-10T00:27:17.744Z,0.97
2018-07-10T00:29:46.052Z,4.50
2018-07-10T00:32:14.355Z,4.13
2018-07-10T00:34:42.657Z,5.57
2018-07-10T00:37:10.975Z,2.93
2018-07-10T00:39:39.262Z,9.83
2018-07-10T00:42:07.572Z,5.60
2018-07-10T00:44:35.872Z,5.07
2018-07-10T00:47:04.223Z,4.63
2018-07-10T00:49:32.537Z,4.40
2018-07-10T00:52:00.846Z,3.63
2018-07-10T00:54:29.179Z,1.57
2018-07-10T00:56:57.516Z,2.67
2018-07-10T00:59:25.839Z,4.00
2018-07-10T01:01:55.509Z,3.47
2018-07-10T01:04:23.915Z,3.50
2018-07-10T01:06:52.391Z,3.83
2018-07-10T01:09:20.729Z,2.13
2018-07-10T01:11:49.062Z,2.27
2018-07-10T01:14:17.689Z,5.33
2018-07-10T01:16:45.990Z,2.70
2018-07-10T01:19:15.754Z,4.33
2018-07-10T01:21:45.074Z,2.63
2018-07-10T01:24:15.486Z,2.00
2018-07-10T01:26:43.850Z,7.03
2018-07-10T01:29:20.096Z,3.17
2018-07-10T01:31:49.886Z,2.73
2018-07-10T01:34:18.230Z,2.77
2018-07-10T01:36:46.539Z,3.03
2018-07-10T01:39:14.829Z,2.60
2018-07-10T01:41:43.345Z,1.63
2018-07-10T01:44:11.679Z,5.03
2018-07-10T01:46:40.005Z,1.57
2018-07-10T01:49:08.368Z,5.10
2018-07-10T01:51:36.839Z,3.37
2018-07-10T01:54:05.150Z,4.07
2018-07-10T01:56:33.488Z,3.53
2018-07-10T01:59:02.115Z,0.97
2018-07-10T02:01:30.432Z,2.73
2018-07-10T02:03:59.815Z,2.67
2018-07-10T02:06:28.547Z,2.67
2018-07-10T02:08:57.258Z,3.27
2018-07-10T02:11:25.859Z,2.63
2018-07-10T02:13:54.209Z,1.70
2018-07-10T02:16:22.583Z,3.97
2018-07-10T02:18:51.055Z,3.50
2018-07-10T02:21:19.509Z,1.93
2018-07-10T02:23:47.942Z,2.17
2018-07-10T02:26:21.860Z,2.60
2018-07-10T02:28:51.046Z,5.37
2018-07-10T02:31:19.369Z,1.50
2018-07-10T02:33:51.091Z,3.70
2018-07-10T02:36:22.204Z,4.37
2018-07-10T02:38:53.851Z,2.67
2018-07-10T02:41:23.034Z,3.90
2018-07-10T02:43:52.847Z,5.47
2018-07-10T02:46:21.017Z,4.97
2018-07-10T02:48:49.486Z,3.73
2018-07-10T02:51:17.791Z,3.70
2018-07-10T02:53:46.449Z,4.10
2018-07-10T02:56:15.702Z,4.40
2018-07-10T02:58:44.032Z,10.03
2018-07-10T03:01:12.380Z,2.93
2018-07-10T03:03:41.866Z,2.63
2018-07-10T03:06:10.291Z,3.90
2018-07-10T03:08:38.647Z,3.23
2018-07-10T03:11:07.094Z,5.37
2018-07-10T03:13:35.841Z,6.47
2018-07-10T03:16:04.175Z,3.03
2018-07-10T03:18:32.994Z,5.00
2018-07-10T03:21:01.355Z,5.03
2018-07-10T03:23:29.676Z,4.30
2018-07-10T03:25:58.150Z,4.87
2018-07-10T03:28:26.208Z,3.73
2018-07-10T03:30:54.552Z,2.57
2018-07-10T03:33:23.029Z,4.37
2018-07-10T03:35:51.375Z,5.67
2018-07-10T03:38:19.737Z,3.50
2018-07-10T03:40:48.096Z,3.50
2018-07-10T03:43:16.410Z,3.73
2018-07-10T03:45:44.762Z,3.10
2018-07-10T03:48:13.106Z,4.93
2018-07-10T03:50:41.443Z,2.17
2018-07-10T03:53:09.493Z,3.87
2018-07-10T03:55:38.466Z,2.77
2018-07-10T03:58:06.799Z,2.97
2018-07-10T04:00:35.966Z,4.80
2018-07-10T04:03:04.467Z,4.67
2018-07-10T04:05:32.871Z,2.27
2018-07-10T04:08:03.686Z,3.20
2018-07-10T04:10:34.639Z,2.57
2018-07-10T04:13:06.531Z,3.70
2018-07-10T04:15:34.944Z,8.07
2018-07-10T04:18:06.958Z,2.97
2018-07-10T04:20:46.945Z,3.07
2018-07-10T04:23:15.418Z,6.30
2018-07-10T04:25:46.237Z,5.13
2018-07-10T04:28:16.562Z,5.13
2018-07-10T04:30:55.693Z,4.57
2018-07-10T04:33:24.008Z,3.33
2018-07-10T04:35:52.341Z,3.50
2018-07-10T04:38:25.956Z,5.13
2018-07-10T04:40:58.066Z,2.13
2018-07-10T04:43:27.241Z,5.07
2018-07-10T04:45:56.781Z,5.03
2018-07-10T04:48:30.465Z,5.50
2018-07-10T04:51:04.265Z,4.17
2018-07-10T04:53:40.148Z,2.57
2018-07-10T04:56:08.552Z,4.83
2018-07-10T04:58:36.860Z,3.20
2018-07-10T05:01:05.195Z,4.70
2018-07-10T05:03:33.578Z,3.73
2018-07-10T05:06:05.897Z,2.33
2018-07-10T05:08:34.203Z,5.30
2018-07-10T05:11:02.687Z,2.47
2018-07-10T05:13:31.014Z,4.37
2018-07-10T05:16:02.627Z,5.50
2018-07-10T05:18:31.060Z,5.23
2018-07-10T05:21:00.581Z,3.70
2018-07-10T05:23:29.226Z,4.97
2018-07-10T05:25:57.678Z,8.90
2018-07-10T05:28:26.847Z,7.33
2018-07-10T05:30:58.195Z,9.40
2018-07-10T05:33:26.627Z,3.87
2018-07-10T05:35:54.967Z,3.77
2018-07-10T05:38:33.629Z,6.63
2018-07-10T05:41:01.988Z,9.60
2018-07-10T05:43:30.729Z,4.37
2018-07-10T05:45:59.175Z,9.43
2018-07-10T05:48:28.630Z,7.10
2018-07-10T05:50:57.058Z,3.63
2018-07-10T05:53:25.411Z,4.47
2018-07-10T05:55:53.888Z,4.70
2018-07-10T05:58:22.209Z,5.57
2018-07-10T06:00:50.529Z,5.33
2018-07-10T06:03:18.767Z,4.20
2018-07-10T06:05:47.182Z,5.93
2018-07-10T06:08:15.563Z,3.67
2018-07-10T06:10:43.921Z,6.60
2018-07-10T06:13:12.210Z,5.07
2018-07-10T06:15:40.613Z,6.23
2018-07-10T06:18:09.011Z,5.13
2018-07-10T06:20:37.410Z,4.97
2018-07-10T06:23:05.691Z,4.40
2018-07-10T06:25:35.818Z,5.53
2018-07-10T06:28:11.100Z,6.30
2018-07-10T06:30:39.930Z,3.70
2018-07-10T06:33:19.822Z,3.03
2018-07-10T06:36:06.129Z,3.23
2018-07-10T06:38:38.088Z,6.60
2018-07-10T06:41:06.561Z,3.70
2018-07-10T06:43:43.613Z,3.23
2018-07-10T06:46:11.922Z,4.00
2018-07-10T06:48:45.499Z,5.17
2018-07-10T06:51:17.107Z,6.20
2018-07-10T06:53:47.184Z,3.97
2018-07-10T06:56:32.626Z,4.50
2018-07-10T06:59:00.934Z,5.30
2018-07-10T07:01:29.319Z,6.87
2018-07-10T07:04:00.215Z,6.33
2018-07-10T07:06:28.711Z,4.33
2018-07-10T07:08:57.020Z,7.07
2018-07-10T07:11:26.106Z,4.60
2018-07-10T07:13:54.554Z,6.60
2018-07-10T07:16:22.918Z,5.03
2018-07-10T07:18:51.757Z,7.00
2018-07-10T07:21:20.516Z,3.57
2018-07-10T07:23:48.970Z,5.40
2018-07-10T07:26:17.407Z,5.57
2018-07-10T07:28:45.759Z,6.37
2018-07-10T07:31:14.426Z,6.70
2018-07-10T07:33:42.973Z,5.33
2018-07-10T07:36:11.914Z,4.47
2018-07-10T07:38:40.264Z,7.27
2018-07-10T07:41:08.793Z,8.93
2018-07-10T07:43:37.315Z,4.63
2018-07-10T07:46:05.672Z,8.67
2018-07-10T07:48:34.346Z,6.03
2018-07-10T07:51:02.771Z,4.87
2018-07-10T07:53:31.619Z,7.47
2018-07-10T07:56:00.205Z,8.23
2018-07-10T07:58:28.692Z,3.80
2018-07-10T08:00:57.236Z,9.13
2018-07-10T08:03:25.580Z,5.13
2018-07-10T08:05:53.907Z,6.97
2018-07-10T08:08:22.185Z,5.73
2018-07-10T08:10:51.071Z,5.83
2018-07-10T08:13:19.510Z,7.40
2018-07-10T08:15:48.448Z,5.53
2018-07-10T08:18:17.053Z,7.50
2018-07-10T08:20:45.443Z,7.37
2018-07-10T08:23:14.003Z,11.60
2018-07-10T08:25:42.582Z,10.13
2018-07-10T08:28:11.078Z,6.10
2018-07-10T08:30:39.343Z,7.53
2018-07-10T08:33:07.772Z,6.10
2018-07-10T08:35:36.098Z,9.13
2018-07-10T08:38:04.450Z,6.13
2018-07-10T08:40:32.806Z,6.80
2018-07-10T08:43:01.453Z,5.73
2018-07-10T08:45:29.905Z,4.23
2018-07-10T08:48:00.153Z,8.00
2018-07-10T08:50:29.785Z,7.73
2018-07-10T08:52:58.644Z,11.43
2018-07-10T08:55:27.041Z,7.37
2018-07-10T08:57:55.764Z,6.00
2018-07-10T09:00:24.152Z,7.07
2018-07-10T09:02:52.456Z,5.70
2018-07-10T09:05:21.244Z,10.40
2018-07-10T09:07:49.531Z,8.10
2018-07-10T09:10:17.971Z,10.73
2018-07-10T09:12:46.294Z,6.53
2018-07-10T09:15:15.196Z,8.67
2018-07-10T09:17:43.609Z,7.97
2018-07-10T09:20:14.079Z,10.83
2018-07-10T09:22:42.621Z,10.57
2018-07-10T09:25:11.250Z,8.67
2018-07-10T09:27:39.691Z,7.80
2018-07-10T09:30:08.008Z,7.87
2018-07-10T09:32:41.974Z,6.37
2018-07-10T09:35:10.288Z,10.70
2018-07-10T09:37:43.954Z,7.93
2018-07-10T09:40:15.587Z,9.43
2018-07-10T09:42:50.056Z,9.67
2018-07-10T09:45:18.710Z,7.43
2018-07-10T09:47:47.581Z,6.60
2018-07-10T09:50:16.154Z,12.20
2018-07-10T09:52:44.535Z,7.87
2018-07-10T09:55:12.838Z,8.87
2018-07-10T09:57:42.703Z,12.20
2018-07-10T10:00:10.974Z,9.40
2018-07-10T10:02:39.944Z,11.47
2018-07-10T10:05:08.405Z,6.37
2018-07-10T10:07:36.702Z,9.23
2018-07-10T10:10:05.334Z,11.80
2018-07-10T10:12:35.015Z,9.37
2018-07-10T10:15:03.357Z,11.93
2018-07-10T10:17:32.314Z,10.43
2018-07-10T10:20:01.038Z,11.33
2018-07-10T10:22:31.300Z,11.90
2018-07-10T10:25:00.682Z,11.40
2018-07-10T10:27:30.058Z,8.63
2018-07-10T10:29:58.919Z,9.87
2018-07-10T10:32:27.210Z,9.33
2018-07-10T10:34:55.555Z,9.00
2018-07-10T10:37:23.822Z,11.53
2018-07-10T10:39:53.116Z,12.53
2018-07-10T10:42:21.452Z,11.17
2018-07-10T10:44:51.986Z,11.97
2018-07-10T10:47:20.855Z,9.93
2018-07-10T10:49:50.521Z,9.93
2018-07-10T10:52:19.363Z,16.90
2018-07-10T10:54:47.672Z,11.70
2018-07-10T10:57:16.318Z,11.53
2018-07-10T10:59:45.206Z,10.87
2018-07-10T11:02:14.095Z,8.07
2018-07-10T11:04:42.346Z,10.00
2018-07-10T11:07:10.729Z,13.47
2018-07-10T11:09:39.233Z,12.23
2018-07-10T11:12:07.545Z,10.13
2018-07-10T11:14:35.923Z,12.57
2018-07-10T11:17:04.282Z,12.87
2018-07-10T11:19:39.166Z,12.30
2018-07-10T11:22:10.808Z,10.40
2018-07-10T11:24:53.115Z,13.60
2018-07-10T11:28:25.020Z,10.93
2018-07-10T11:30:53.347Z,13.63
2018-07-10T11:33:21.403Z,9.90
2018-07-10T11:35:49.708Z,11.00
2018-07-10T11:38:18.090Z,15.70
2018-07-10T11:40:46.515Z,13.87
2018-07-10T11:43:14.887Z,15.47
2018-07-10T11:45:43.260Z,12.80
2018-07-10T11:48:11.529Z,14.30
2018-07-10T11:50:39.846Z,20.00
2018-07-10T11:53:08.164Z,14.80
2018-07-10T11:55:36.775Z,12.43
2018-07-10T11:58:06.896Z,14.70
2018-07-10T12:00:35.615Z,14.47
2018-07-10T12:03:05.236Z,10.93
2018-07-10T12:05:35.175Z,19.27
2018-07-10T12:08:03.462Z,12.73
2018-07-10T12:10:33.710Z,15.67
2018-07-10T12:13:01.986Z,17.27
2018-07-10T12:15:30.519Z,14.00
2018-07-10T12:17:59.558Z,15.47
2018-07-10T12:20:29.675Z,14.90
2018-07-10T12:22:58.664Z,12.93
2018-07-10T12:25:27.393Z,12.33
2018-07-10T12:27:56.301Z,12.00
2018-07-10T12:30:24.604Z,15.27
2018-07-10T12:32:52.968Z,15.90
2018-07-10T12:35:21.278Z,13.67
2018-07-10T12:37:50.069Z,11.70
2018-07-10T12:40:18.438Z,12.97
2018-07-10T12:42:46.758Z,13.93
2018-07-10T12:45:15.067Z,10.70
2018-07-10T12:47:43.427Z,15.23
2018-07-10T12:50:11.763Z,17.37
2018-07-10T12:52:41.011Z,18.77
2018-07-10T12:55:09.305Z,11.30
2018-07-10T12:57:41.669Z,16.23
2018-07-10T13:00:10.330Z,18.57
2018-07-10T13:02:56.459Z,15.67
2018-07-10T13:05:30.303Z,15.50
2018-07-10T13:07:58.643Z,20.53
2018-07-10T13:10:26.974Z,18.80
2018-07-10T13:12:55.359Z,17.57
2018-07-10T13:15:23.670Z,16.93
2018-07-10T13:17:52.239Z,14.87
2018-07-10T13:20:20.807Z,16.90
2018-07-10T13:22:50.484Z,15.43
2018-07-10T13:25:18.786Z,18.00
2018-07-10T13:27:48.433Z,17.20
2018-07-10T13:30:16.754Z,14.40
2018-07-10T13:32:45.051Z,16.10
2018-07-10T13:35:13.367Z,16.33
2018-07-10T13:37:42.106Z,15.00
2018-07-10T13:40:10.530Z,11.60
2018-07-10T13:42:58.544Z,17.53
2018-07-10T13:45:28.041Z,21.07
2018-07-10T13:47:56.362Z,17.80
2018-07-10T13:50:26.726Z,17.30
2018-07-10T13:52:58.847Z,14.87
2018-07-10T13:55:27.910Z,15.50
2018-07-10T13:58:07.752Z,15.37
2018-07-10T14:00:37.357Z,16.17
2018-07-10T14:03:05.680Z,18.83
2018-07-10T14:05:34.067Z,19.07
2018-07-10T14:08:02.355Z,17.03
2018-07-10T14:10:30.713Z,24.47
2018-07-10T14:12:59.583Z,12.97
2018-07-10T14:15:27.917Z,17.63
2018-07-10T14:17:57.869Z,19.87
2018-07-10T14:20:26.455Z,17.43
2018-07-10T14:22:56.619Z,19.43
2018-07-10T14:25:24.925Z,20.23
2018-07-10T14:27:53.227Z,20.50
2018-07-10T14:30:21.587Z,21.10
2018-07-10T14:32:49.868Z,22.93
2018-07-10T14:35:18.244Z,20.27
2018-07-10T14:37:48.217Z,18.47
2018-07-10T14:40:16.686Z,22.00
2018-07-10T14:42:45.171Z,20.87
2018-07-10T14:45:13.471Z,18.80
2018-07-10T14:47:41.759Z,24.53
2018-07-10T14:50:10.039Z,19.90
2018-07-10T14:52:38.574Z,14.90
2018-07-10T14:55:06.895Z,18.37
2018-07-10T14:57:35.281Z,25.13
2018-07-10T15:00:03.660Z,17.43
2018-07-10T15:02:31.959Z,25.50
2018-07-10T15:05:00.258Z,19.10
2018-07-10T15:07:28.599Z,20.97
2018-07-10T15:09:56.965Z,20.27
2018-07-10T15:12:25.254Z,15.70
2018-07-10T15:14:53.717Z,18.67
2018-07-10T15:17:27.499Z,17.77
2018-07-10T15:19:55.841Z,23.30
2018-07-10T15:22:24.130Z,18.10
2018-07-10T15:24:52.428Z,24.20
2018-07-10T15:27:20.791Z,20.50
2018-07-10T15:29:50.557Z,26.90
2018-07-10T15:32:18.973Z,16.13
2018-07-10T15:34:47.328Z,25.33
2018-07-10T15:37:15.647Z,19.00
2018-07-10T15:39:43.960Z,15.47
2018-07-10T15:42:12.263Z,17.40
2018-07-10T15:44:40.591Z,17.13
2018-07-10T15:47:09.524Z,16.53
2018-07-10T15:49:37.900Z,20.13
2018-07-10T15:52:06.497Z,18.20
2018-07-10T15:54:34.864Z,14.93
2018-07-10T15:57:03.172Z,22.07
2018-07-10T15:59:31.466Z,20.97
2018-07-10T16:01:59.806Z,18.97
2018-07-10T16:04:28.181Z,15.43
2018-07-10T16:06:56.652Z,16.53
2018-07-10T16:09:24.942Z,20.37
2018-07-10T16:11:56.305Z,16.67
2018-07-10T16:14:24.954Z,16.17
2018-07-10T16:16:53.256Z,20.77
2018-07-10T16:19:33.658Z,17.27
2018-07-10T16:22:06.419Z,19.33
2018-07-10T16:24:37.755Z,21.57
2018-07-10T16:27:06.578Z,20.83
2018-07-10T16:29:35.056Z,17.60
2018-07-10T16:32:06.403Z,21.30
2018-07-10T16:34:34.909Z,20.27
2018-07-10T16:37:03.543Z,15.67
2018-07-10T16:39:31.865Z,16.53
2018-07-10T16:42:05.636Z,17.23
2018-07-10T16:44:34.497Z,17.80
2018-07-10T16:47:09.880Z,27.13
2018-07-10T16:49:42.491Z,21.20
2018-07-10T16:52:18.610Z,30.43
2018-07-10T16:54:47.515Z,36.07
2018-07-10T16:57:15.844Z,38.13
2018-07-10T16:59:44.152Z,25.77
2018-07-10T17:02:12.617Z,29.93
2018-07-10T17:04:42.598Z,33.83
2018-07-10T17:07:11.080Z,34.73
2018-07-10T17:09:39.228Z,34.80
2018-07-10T17:12:07.910Z,25.93
2018-07-10T17:14:36.207Z,25.60
2018-07-10T17:17:08.748Z,22.23
2018-07-10T17:19:37.071Z,25.67
2018-07-10T17:22:05.413Z,26.33
2018-07-10T17:24:33.733Z,24.17
2018-07-10T17:27:02.020Z,24.67
2018-07-10T17:29:30.429Z,25.17
2018-07-10T17:31:58.736Z,23.50
2018-07-10T17:34:27.009Z,15.97
2018-07-10T17:36:55.401Z,27.67
2018-07-10T17:39:23.828Z,23.00
2018-07-10T17:41:51.958Z,25.50
2018-07-10T17:44:50.819Z,17.27
2018-07-10T17:47:19.505Z,15.50
2018-07-10T17:49:48.040Z,13.97
2018-07-10T17:52:16.506Z,15.17
2018-07-10T17:54:44.548Z,19.43
2018-07-10T17:57:12.869Z,14.17
2018-07-10T17:59:41.234Z,17.00
2018-07-10T18:02:10.290Z,20.20
2018-07-10T18:04:38.621Z,20.33
2018-07-10T18:07:07.196Z,21.23
2018-07-10T18:09:35.527Z,12.57
2018-07-10T18:12:04.003Z,14.73
2018-07-10T18:14:32.385Z,15.43
2018-07-10T18:17:00.874Z,16.97
2018-07-10T18:19:29.215Z,20.13
2018-07-10T18:21:57.559Z,16.07
2018-07-10T18:24:26.011Z,12.33
2018-07-10T18:26:54.388Z,14.17
2018-07-10T18:29:22.729Z,16.93
2018-07-10T18:31:51.139Z,15.30
2018-07-10T18:34:19.567Z,14.57
2018-07-10T18:36:48.037Z,14.13
2018-07-10T18:39:16.535Z,10.00
2018-07-10T18:41:44.855Z,10.73
2018-07-10T18:44:13.234Z,13.97
2018-07-10T18:46:41.629Z,16.57
2018-07-10T18:49:10.172Z,14.23
2018-07-10T18:51:38.528Z,17.53
2018-07-10T18:54:06.988Z,15.97
2018-07-10T18:56:35.263Z,11.43
2018-07-10T18:59:06.070Z,13.83
2018-07-10T19:02:12.285Z,14.33
2018-07-10T19:04:51.203Z,14.67
2018-07-10T19:07:19.801Z,20.77
2018-07-10T19:09:48.228Z,10.43
2018-07-10T19:12:16.601Z,9.47
2018-07-10T19:14:45.338Z,14.87
2018-07-10T19:17:18.521Z,16.10
2018-07-10T19:19:47.600Z,16.33
2018-07-10T19:22:17.120Z,16.30
2018-07-10T19:24:46.027Z,13.87
2018-07-10T19:27:24.134Z,20.00
2018-07-10T19:29:56.038Z,19.47
2018-07-10T19:32:25.738Z,14.90
2018-07-10T19:34:56.425Z,17.27
2018-07-10T19:37:27.739Z,16.53
2018-07-10T19:39:56.096Z,13.13
2018-07-10T19:42:24.806Z,14.60
2018-07-10T19:44:53.264Z,13.73
2018-07-10T19:47:22.749Z,15.90
2018-07-10T19:49:52.247Z,15.57
2018-07-10T19:52:21.410Z,17.83
2018-07-10T19:54:49.804Z,12.47
2018-07-10T19:57:24.647Z,17.60
2018-07-10T19:59:52.942Z,14.93
2018-07-10T20:02:21.366Z,16.73
2018-07-10T20:05:01.312Z,16.27
2018-07-10T20:07:31.596Z,21.87
2018-07-10T20:10:03.787Z,14.83
2018-07-10T20:12:41.792Z,16.63
2018-07-10T20:15:20.794Z,14.20
2018-07-10T20:17:59.550Z,16.77
2018-07-10T20:20:30.165Z,18.33
2018-07-10T20:23:08.598Z,14.00
2018-07-10T20:25:45.721Z,16.53
2018-07-10T20:28:21.372Z,16.10
2018-07-10T20:31:05.128Z,16.83
2018-07-10T20:33:40.896Z,11.93
2018-07-10T20:36:10.174Z,15.80
2018-07-10T20:38:38.548Z,11.27
2018-07-10T20:41:07.327Z,17.83
2018-07-10T20:43:40.627Z,9.87
2018-07-10T20:46:10.321Z,13.93
2018-07-10T20:48:43.567Z,14.33
2018-07-10T20:51:13.387Z,14.77
2018-07-10T20:54:15.202Z,16.03
2018-07-10T20:57:03.831Z,18.93
2018-07-10T20:59:41.187Z,10.43
2018-07-10T21:02:35.306Z,14.10
2018-07-10T21:05:08.486Z,9.47
2018-07-10T21:07:43.392Z,9.67
2018-07-10T21:10:25.061Z,9.60
2018-07-10T21:12:57.286Z,10.40
2018-07-10T21:15:31.447Z,12.83
2018-07-10T21:18:24.419Z,12.77
2018-07-10T21:21:40.002Z,10.97
2018-07-10T21:25:45.598Z,11.93
2018-07-10T21:28:26.812Z,8.47
2018-07-10T21:31:00.175Z,10.53
2018-07-10T21:33:37.956Z,16.60
2018-07-10T21:36:16.727Z,15.10
2018-07-10T21:38:57.014Z,16.80
2018-07-10T21:41:56.718Z,11.43
2018-07-10T21:44:40.008Z,15.10
2018-07-10T21:47:21.938Z,14.40
2018-07-10T21:49:53.222Z,8.97
2018-07-10T21:52:21.532Z,6.80
2018-07-10T21:54:49.986Z,12.93
2018-07-10T21:57:22.203Z,15.53
2018-07-10T21:59:55.026Z,16.53
2018-07-10T22:02:23.974Z,11.57
2018-07-10T22:04:53.794Z,15.43
2018-07-10T22:07:23.411Z,9.40
2018-07-10T22:09:53.666Z,13.33
2018-07-10T22:12:22.399Z,15.97
2018-07-10T22:14:50.695Z,11.60
2018-07-10T22:17:21.787Z,11.30
2018-07-10T22:19:50.938Z,13.17
2018-07-10T22:22:21.415Z,15.90
2018-07-10T22:24:50.811Z,9.97
2018-07-10T22:27:19.470Z,13.10
2018-07-10T22:29:53.202Z,7.73
2018-07-10T22:32:27.033Z,18.53
2018-07-10T22:34:55.337Z,10.73
2018-07-10T22:37:23.648Z,9.47
2018-07-10T22:39:52.011Z,7.27
2018-07-10T22:42:20.326Z,8.60
2018-07-10T22:44:50.581Z,13.70
2018-07-10T22:47:23.362Z,11.10
2018-07-10T22:49:51.698Z,14.07
2018-07-10T22:52:19.995Z,10.23
2018-07-10T22:54:48.361Z,16.60
2018-07-10T22:57:16.731Z,8.03
2018-07-10T22:59:45.932Z,8.07
2018-07-10T23:02:14.282Z,9.07
2018-07-10T23:04:42.584Z,13.80
2018-07-10T23:07:10.940Z,15.10
2018-07-10T23:09:39.260Z,10.50
2018-07-10T23:12:07.753Z,9.63
2018-07-10T23:14:36.119Z,15.80
2018-07-10T23:17:04.488Z,11.47
2018-07-10T23:19:32.889Z,12.63
2018-07-10T23:22:01.193Z,5.37
2018-07-10T23:24:30.700Z,9.47
2018-07-10T23:26:59.021Z,14.90
2018-07-10T23:29:33.704Z,7.60
2018-07-10T23:32:02.239Z,8.97
2018-07-10T23:34:31.087Z,10.93
2018-07-10T23:37:00.331Z,11.10
2018-07-10T23:39:40.953Z,14.47
2018-07-10T23:42:14.819Z,7.57
2018-07-10T23:44:46.445Z,9.53
2018-07-10T23:47:32.964Z,6.07
2018-07-10T23:50:13.775Z,8.23
2018-07-10T23:52:51.834Z,8.57
2018-07-10T23:55:20.140Z,8.53
2018-07-10T23:57:48.882Z,6.33
